sensor_id;sensor_type;location;lat;lon;timestamp;P1;durP1;ratioP1;P2;durP2;ratioP2
35223;SDS011;21367;51.930;8.112;2022-12-24T00:01:19;10.52;;;2.38;;
35223;SDS011;21367;51.930;8.112;2022-12-24T00:06:26;10.75;;;2.33;;
35223;SDS011;21367;51.930;8.112;2022-12-24T00:16:33;14.25;;;2.47;;
35223;SDS011;21367;51.930;8.112;2022-12-24T00:21:39;20.58;;;3.20;;
35223;SDS011;21367;51.930;8.112;2022-12-24T00:26:43;21.85;;;3.95;;
35223;SDS011;21367;51.930;8.112;2022-12-24T00:31:46;27.75;;;3.65;;
35223;SDS011;21367;51.930;8.112;2022-12-24T00:36:52;22.02;;;3.45;;
35223;SDS011;21367;51.930;8.112;2022-12-24T00:41:56;29.98;;;3.92;;
35223;SDS011;21367;51.930;8.112;2022-12-24T00:47:00;28.92;;;4.28;;
35223;SDS011;21367;51.930;8.112;2022-12-24T00:52:06;32.25;;;4.53;;
35223;SDS011;21367;51.930;8.112;2022-12-24T00:57:11;24.10;;;3.80;;
35223;SDS011;21367;51.930;8.112;2022-12-24T01:02:15;21.38;;;3.88;;
35223;SDS011;21367;51.930;8.112;2022-12-24T01:07:21;23.80;;;5.13;;
35223;SDS011;21367;51.930;8.112;2022-12-24T01:12:25;30.88;;;4.63;;
35223;SDS011;21367;51.930;8.112;2022-12-24T01:17:29;27.25;;;5.05;;
35223;SDS011;21367;51.930;8.112;2022-12-24T01:22:36;34.35;;;5.07;;
35223;SDS011;21367;51.930;8.112;2022-12-24T01:27:40;28.80;;;4.93;;
35223;SDS011;21367;51.930;8.112;2022-12-24T01:32:43;47.58;;;6.53;;
35223;SDS011;21367;51.930;8.112;2022-12-24T01:37:50;36.33;;;5.75;;
35223;SDS011;21367;51.930;8.112;2022-12-24T01:48:13;50.05;;;6.13;;
35223;SDS011;21367;51.930;8.112;2022-12-24T01:53:24;43.05;;;8.63;;
35223;SDS011;21367;51.930;8.112;2022-12-24T01:58:28;55.28;;;8.57;;
35223;SDS011;21367;51.930;8.112;2022-12-24T02:03:32;54.45;;;8.30;;
35223;SDS011;21367;51.930;8.112;2022-12-24T02:08:39;39.08;;;6.63;;
35223;SDS011;21367;51.930;8.112;2022-12-24T02:13:44;56.50;;;8.95;;
35223;SDS011;21367;51.930;8.112;2022-12-24T02:18:53;53.80;;;7.68;;
35223;SDS011;21367;51.930;8.112;2022-12-24T02:24:12;56.25;;;6.88;;
35223;SDS011;21367;51.930;8.112;2022-12-24T02:29:28;46.30;;;6.22;;
35223;SDS011;21367;51.930;8.112;2022-12-24T02:34:54;54.00;;;8.52;;
35223;SDS011;21367;51.930;8.112;2022-12-24T02:40:05;45.33;;;6.72;;
35223;SDS011;21367;51.930;8.112;2022-12-24T02:45:17;62.30;;;7.53;;
35223;SDS011;21367;51.930;8.112;2022-12-24T02:50:25;47.30;;;7.20;;
35223;SDS011;21367;51.930;8.112;2022-12-24T02:55:32;46.47;;;6.00;;
35223;SDS011;21367;51.930;8.112;2022-12-24T03:00:46;50.28;;;6.70;;
35223;SDS011;21367;51.930;8.112;2022-12-24T03:06:19;46.63;;;6.15;;
35223;SDS011;21367;51.930;8.112;2022-12-24T03:11:30;41.38;;;6.20;;
35223;SDS011;21367;51.930;8.112;2022-12-24T03:16:38;50.73;;;6.10;;
35223;SDS011;21367;51.930;8.112;2022-12-24T03:21:42;41.67;;;5.75;;
35223;SDS011;21367;51.930;8.112;2022-12-24T03:26:48;52.50;;;7.00;;
35223;SDS011;21367;51.930;8.112;2022-12-24T03:31:57;58.45;;;6.90;;
35223;SDS011;21367;51.930;8.112;2022-12-24T03:37:03;71.75;;;8.13;;
35223;SDS011;21367;51.930;8.112;2022-12-24T03:42:06;56.03;;;6.85;;
35223;SDS011;21367;51.930;8.112;2022-12-24T03:47:13;64.03;;;8.55;;
35223;SDS011;21367;51.930;8.112;2022-12-24T03:57:20;56.03;;;8.20;;
35223;SDS011;21367;51.930;8.112;2022-12-24T04:02:27;59.60;;;7.10;;
35223;SDS011;21367;51.930;8.112;2022-12-24T04:07:31;60.95;;;7.00;;
35223;SDS011;21367;51.930;8.112;2022-12-24T04:12:35;61.53;;;7.25;;
35223;SDS011;21367;51.930;8.112;2022-12-24T04:17:42;51.28;;;6.90;;
35223;SDS011;21367;51.930;8.112;2022-12-24T04:22:46;60.60;;;7.07;;
35223;SDS011;21367;51.930;8.112;2022-12-24T04:27:49;53.90;;;6.38;;
35223;SDS011;21367;51.930;8.112;2022-12-24T04:32:56;51.97;;;7.40;;
35223;SDS011;21367;51.930;8.112;2022-12-24T04:43:03;40.25;;;6.28;;
35223;SDS011;21367;51.930;8.112;2022-12-24T04:48:09;52.47;;;6.43;;
35223;SDS011;21367;51.930;8.112;2022-12-24T04:53:13;60.67;;;7.35;;
35223;SDS011;21367;51.930;8.112;2022-12-24T04:58:17;69.82;;;7.45;;
35223;SDS011;21367;51.930;8.112;2022-12-24T05:03:23;47.72;;;8.23;;
35223;SDS011;21367;51.930;8.112;2022-12-24T05:08:26;45.42;;;7.28;;
35223;SDS011;21367;51.930;8.112;2022-12-24T05:13:30;63.72;;;7.78;;
35223;SDS011;21367;51.930;8.112;2022-12-24T05:18:37;56.72;;;7.47;;
35223;SDS011;21367;51.930;8.112;2022-12-24T05:23:41;62.70;;;8.55;;
35223;SDS011;21367;51.930;8.112;2022-12-24T05:28:58;54.03;;;8.43;;
35223;SDS011;21367;51.930;8.112;2022-12-24T05:34:06;59.97;;;8.90;;
35223;SDS011;21367;51.930;8.112;2022-12-24T05:39:12;63.25;;;9.40;;
35223;SDS011;21367;51.930;8.112;2022-12-24T05:44:18;48.10;;;8.02;;
35223;SDS011;21367;51.930;8.112;2022-12-24T05:49:24;64.03;;;9.00;;
35223;SDS011;21367;51.930;8.112;2022-12-24T05:54:31;70.00;;;10.52;;
35223;SDS011;21367;51.930;8.112;2022-12-24T05:59:35;62.63;;;10.85;;
35223;SDS011;21367;51.930;8.112;2022-12-24T06:09:59;60.45;;;10.82;;
35223;SDS011;21367;51.930;8.112;2022-12-24T06:15:04;71.35;;;12.15;;
35223;SDS011;21367;51.930;8.112;2022-12-24T06:20:12;60.28;;;11.55;;
35223;SDS011;21367;51.930;8.112;2022-12-24T06:25:16;75.45;;;11.68;;
35223;SDS011;21367;51.930;8.112;2022-12-24T06:30:20;81.38;;;10.73;;
35223;SDS011;21367;51.930;8.112;2022-12-24T06:35:27;55.60;;;10.05;;
35223;SDS011;21367;51.930;8.112;2022-12-24T06:40:31;67.65;;;11.00;;
35223;SDS011;21367;51.930;8.112;2022-12-24T06:45:38;71.10;;;10.23;;
35223;SDS011;21367;51.930;8.112;2022-12-24T06:50:44;84.85;;;10.18;;
35223;SDS011;21367;51.930;8.112;2022-12-24T06:55:49;75.18;;;10.18;;
35223;SDS011;21367;51.930;8.112;2022-12-24T07:00:52;43.30;;;8.38;;
35223;SDS011;21367;51.930;8.112;2022-12-24T07:05:58;61.08;;;10.77;;
35223;SDS011;21367;51.930;8.112;2022-12-24T07:11:06;72.72;;;12.77;;
35223;SDS011;21367;51.930;8.112;2022-12-24T07:16:09;68.65;;;10.52;;
35223;SDS011;21367;51.930;8.112;2022-12-24T07:21:16;53.80;;;11.90;;
35223;SDS011;21367;51.930;8.112;2022-12-24T07:26:19;77.25;;;13.05;;
35223;SDS011;21367;51.930;8.112;2022-12-24T07:31:23;67.78;;;13.98;;
35223;SDS011;21367;51.930;8.112;2022-12-24T07:36:32;65.95;;;13.02;;
35223;SDS011;21367;51.930;8.112;2022-12-24T07:46:40;81.13;;;12.90;;
35223;SDS011;21367;51.930;8.112;2022-12-24T07:51:47;65.55;;;13.27;;
35223;SDS011;21367;51.930;8.112;2022-12-24T08:01:54;60.80;;;13.10;;
35223;SDS011;21367;51.930;8.112;2022-12-24T08:07:00;50.58;;;12.75;;
35223;SDS011;21367;51.930;8.112;2022-12-24T08:12:04;57.67;;;12.95;;
35223;SDS011;21367;51.930;8.112;2022-12-24T08:17:08;48.40;;;11.68;;
35223;SDS011;21367;51.930;8.112;2022-12-24T08:22:15;64.05;;;13.55;;
35223;SDS011;21367;51.930;8.112;2022-12-24T08:27:19;40.95;;;10.85;;
35223;SDS011;21367;51.930;8.112;2022-12-24T08:32:23;53.60;;;10.90;;
35223;SDS011;21367;51.930;8.112;2022-12-24T08:37:29;56.28;;;10.75;;
35223;SDS011;21367;51.930;8.112;2022-12-24T08:42:32;62.33;;;12.50;;
35223;SDS011;21367;51.930;8.112;2022-12-24T08:47:37;48.42;;;11.52;;
35223;SDS011;21367;51.930;8.112;2022-12-24T08:52:43;57.72;;;11.35;;
35223;SDS011;21367;51.930;8.112;2022-12-24T08:57:48;44.47;;;9.82;;
35223;SDS011;21367;51.930;8.112;2022-12-24T09:02:51;57.50;;;10.40;;
35223;SDS011;21367;51.930;8.112;2022-12-24T09:07:58;56.60;;;10.15;;
35223;SDS011;21367;51.930;8.112;2022-12-24T09:18:06;42.97;;;9.18;;
35223;SDS011;21367;51.930;8.112;2022-12-24T09:23:14;51.37;;;12.20;;
35223;SDS011;21367;51.930;8.112;2022-12-24T09:28:18;47.60;;;10.50;;
35223;SDS011;21367;51.930;8.112;2022-12-24T09:33:22;46.83;;;9.77;;
35223;SDS011;21367;51.930;8.112;2022-12-24T09:38:28;58.45;;;12.15;;
35223;SDS011;21367;51.930;8.112;2022-12-24T09:43:32;52.70;;;9.35;;
35223;SDS011;21367;51.930;8.112;2022-12-24T09:48:38;56.97;;;9.57;;
35223;SDS011;21367;51.930;8.112;2022-12-24T09:53:50;56.55;;;9.50;;
35223;SDS011;21367;51.930;8.112;2022-12-24T09:58:59;50.97;;;10.55;;
35223;SDS011;21367;51.930;8.112;2022-12-24T10:04:07;53.90;;;9.00;;
35223;SDS011;21367;51.930;8.112;2022-12-24T10:09:19;43.85;;;7.93;;
35223;SDS011;21367;51.930;8.112;2022-12-24T10:14:34;40.85;;;6.65;;
35223;SDS011;21367;51.930;8.112;2022-12-24T10:19:49;44.13;;;7.43;;
35223;SDS011;21367;51.930;8.112;2022-12-24T10:25:05;50.55;;;7.25;;
35223;SDS011;21367;51.930;8.112;2022-12-24T10:30:19;39.05;;;7.25;;
35223;SDS011;21367;51.930;8.112;2022-12-24T10:35:24;41.42;;;6.70;;
35223;SDS011;21367;51.930;8.112;2022-12-24T10:40:34;48.30;;;7.43;;
35223;SDS011;21367;51.930;8.112;2022-12-24T10:45:43;48.92;;;7.57;;
35223;SDS011;21367;51.930;8.112;2022-12-24T10:50:52;42.58;;;6.88;;
35223;SDS011;21367;51.930;8.112;2022-12-24T10:56:04;38.13;;;6.32;;
35223;SDS011;21367;51.930;8.112;2022-12-24T11:01:10;54.38;;;7.32;;
35223;SDS011;21367;51.930;8.112;2022-12-24T11:06:14;57.20;;;7.65;;
35223;SDS011;21367;51.930;8.112;2022-12-24T11:11:24;41.05;;;7.10;;
35223;SDS011;21367;51.930;8.112;2022-12-24T11:16:28;39.90;;;6.70;;
35223;SDS011;21367;51.930;8.112;2022-12-24T11:21:35;45.30;;;7.20;;
35223;SDS011;21367;51.930;8.112;2022-12-24T11:26:44;51.10;;;7.28;;
35223;SDS011;21367;51.930;8.112;2022-12-24T11:31:49;55.88;;;8.43;;
35223;SDS011;21367;51.930;8.112;2022-12-24T11:36:56;49.78;;;7.57;;
35223;SDS011;21367;51.930;8.112;2022-12-24T11:47:31;42.97;;;7.37;;
35223;SDS011;21367;51.930;8.112;2022-12-24T11:52:36;57.88;;;9.25;;
35223;SDS011;21367;51.930;8.112;2022-12-24T11:57:44;40.13;;;7.25;;
35223;SDS011;21367;51.930;8.112;2022-12-24T12:02:55;49.97;;;7.63;;
35223;SDS011;21367;51.930;8.112;2022-12-24T12:08:04;36.47;;;6.60;;
35223;SDS011;21367;51.930;8.112;2022-12-24T12:13:16;47.70;;;9.38;;
35223;SDS011;21367;51.930;8.112;2022-12-24T12:18:25;43.50;;;7.50;;
35223;SDS011;21367;51.930;8.112;2022-12-24T12:23:35;53.50;;;7.72;;
35223;SDS011;21367;51.930;8.112;2022-12-24T12:28:50;41.42;;;7.15;;
35223;SDS011;21367;51.930;8.112;2022-12-24T12:33:58;51.72;;;6.90;;
35223;SDS011;21367;51.930;8.112;2022-12-24T12:39:07;40.65;;;6.65;;
35223;SDS011;21367;51.930;8.112;2022-12-24T12:49:43;39.03;;;6.68;;
35223;SDS011;21367;51.930;8.112;2022-12-24T12:54:58;50.72;;;7.55;;
35223;SDS011;21367;51.930;8.112;2022-12-24T13:00:14;39.50;;;6.82;;
35223;SDS011;21367;51.930;8.112;2022-12-24T13:10:56;43.92;;;7.03;;
35223;SDS011;21367;51.930;8.112;2022-12-24T13:21:56;40.95;;;6.82;;
35223;SDS011;21367;51.930;8.112;2022-12-24T13:27:00;41.15;;;7.28;;
35223;SDS011;21367;51.930;8.112;2022-12-24T13:37:55;38.22;;;6.20;;
35223;SDS011;21367;51.930;8.112;2022-12-24T13:49:09;40.17;;;6.35;;
35223;SDS011;21367;51.930;8.112;2022-12-24T13:54:18;37.28;;;6.05;;
35223;SDS011;21367;51.930;8.112;2022-12-24T13:59:31;49.72;;;7.43;;
35223;SDS011;21367;51.930;8.112;2022-12-24T14:04:38;50.40;;;8.90;;
35223;SDS011;21367;51.930;8.112;2022-12-24T14:09:47;39.65;;;9.20;;
35223;SDS011;21367;51.930;8.112;2022-12-24T14:14:53;41.47;;;8.23;;
35223;SDS011;21367;51.930;8.112;2022-12-24T14:19:57;46.53;;;8.60;;
35223;SDS011;21367;51.930;8.112;2022-12-24T14:25:08;50.70;;;9.07;;
35223;SDS011;21367;51.930;8.112;2022-12-24T14:30:18;45.30;;;8.13;;
35223;SDS011;21367;51.930;8.112;2022-12-24T14:40:32;45.60;;;8.57;;
35223;SDS011;21367;51.930;8.112;2022-12-24T14:45:44;44.90;;;8.40;;
35223;SDS011;21367;51.930;8.112;2022-12-24T14:51:03;46.83;;;10.02;;
35223;SDS011;21367;51.930;8.112;2022-12-24T14:56:19;56.05;;;11.43;;
35223;SDS011;21367;51.930;8.112;2022-12-24T15:01:25;57.75;;;8.75;;
35223;SDS011;21367;51.930;8.112;2022-12-24T15:06:31;62.88;;;9.73;;
35223;SDS011;21367;51.930;8.112;2022-12-24T15:16:49;47.30;;;11.70;;
35223;SDS011;21367;51.930;8.112;2022-12-24T15:21:55;53.47;;;10.75;;
35223;SDS011;21367;51.930;8.112;2022-12-24T15:27:12;45.67;;;8.90;;
35223;SDS011;21367;51.930;8.112;2022-12-24T15:32:18;62.08;;;10.52;;
35223;SDS011;21367;51.930;8.112;2022-12-24T15:37:23;54.03;;;9.90;;
35223;SDS011;21367;51.930;8.112;2022-12-24T15:42:31;57.47;;;9.40;;
35223;SDS011;21367;51.930;8.112;2022-12-24T15:47:36;56.20;;;10.35;;
35223;SDS011;21367;51.930;8.112;2022-12-24T15:52:46;49.83;;;10.82;;
35223;SDS011;21367;51.930;8.112;2022-12-24T15:57:53;71.72;;;13.70;;
35223;SDS011;21367;51.930;8.112;2022-12-24T16:03:08;56.00;;;11.13;;
35223;SDS011;21367;51.930;8.112;2022-12-24T16:08:23;47.78;;;11.98;;
35223;SDS011;21367;51.930;8.112;2022-12-24T16:13:31;87.63;;;18.85;;
35223;SDS011;21367;51.930;8.112;2022-12-24T16:18:38;83.05;;;22.85;;
35223;SDS011;21367;51.930;8.112;2022-12-24T16:23:54;75.85;;;19.50;;
35223;SDS011;21367;51.930;8.112;2022-12-24T16:29:02;55.47;;;14.50;;
35223;SDS011;21367;51.930;8.112;2022-12-24T16:34:08;65.88;;;14.07;;
35223;SDS011;21367;51.930;8.112;2022-12-24T16:39:15;55.50;;;13.43;;
35223;SDS011;21367;51.930;8.112;2022-12-24T16:44:32;97.38;;;23.13;;
35223;SDS011;21367;51.930;8.112;2022-12-24T16:49:36;97.68;;;25.90;;
35223;SDS011;21367;51.930;8.112;2022-12-24T16:54:40;77.60;;;19.92;;
35223;SDS011;21367;51.930;8.112;2022-12-24T16:59:47;57.80;;;18.23;;
35223;SDS011;21367;51.930;8.112;2022-12-24T17:09:54;47.28;;;10.13;;
35223;SDS011;21367;51.930;8.112;2022-12-24T17:15:00;59.13;;;12.30;;
35223;SDS011;21367;51.930;8.112;2022-12-24T17:20:04;47.42;;;10.90;;
35223;SDS011;21367;51.930;8.112;2022-12-24T17:25:09;46.13;;;12.98;;
35223;SDS011;21367;51.930;8.112;2022-12-24T17:30:18;67.00;;;12.80;;
35223;SDS011;21367;51.930;8.112;2022-12-24T17:35:23;83.88;;;23.58;;
35223;SDS011;21367;51.930;8.112;2022-12-24T17:40:26;66.22;;;19.52;;
35223;SDS011;21367;51.930;8.112;2022-12-24T17:45:40;53.83;;;13.80;;
35223;SDS011;21367;51.930;8.112;2022-12-24T17:50:44;60.22;;;12.85;;
35223;SDS011;21367;51.930;8.112;2022-12-24T17:55:48;50.45;;;13.90;;
35223;SDS011;21367;51.930;8.112;2022-12-24T18:00:58;48.80;;;11.50;;
35223;SDS011;21367;51.930;8.112;2022-12-24T18:06:02;45.08;;;12.40;;
35223;SDS011;21367;51.930;8.112;2022-12-24T18:11:10;48.78;;;12.77;;
35223;SDS011;21367;51.930;8.112;2022-12-24T18:16:18;66.32;;;15.45;;
35223;SDS011;21367;51.930;8.112;2022-12-24T18:21:24;51.70;;;15.18;;
35223;SDS011;21367;51.930;8.112;2022-12-24T18:26:29;44.70;;;13.43;;
35223;SDS011;21367;51.930;8.112;2022-12-24T18:31:36;55.58;;;13.18;;
35223;SDS011;21367;51.930;8.112;2022-12-24T18:36:40;49.28;;;11.73;;
35223;SDS011;21367;51.930;8.112;2022-12-24T18:41:44;48.10;;;12.90;;
35223;SDS011;21367;51.930;8.112;2022-12-24T18:46:51;46.90;;;13.80;;
35223;SDS011;21367;51.930;8.112;2022-12-24T18:56:58;49.20;;;15.77;;
35223;SDS011;21367;51.930;8.112;2022-12-24T19:02:05;61.15;;;18.65;;
35223;SDS011;21367;51.930;8.112;2022-12-24T19:12:12;64.20;;;19.85;;
35223;SDS011;21367;51.930;8.112;2022-12-24T19:17:19;54.22;;;16.75;;
35223;SDS011;21367;51.930;8.112;2022-12-24T19:22:24;48.63;;;15.07;;
35223;SDS011;21367;51.930;8.112;2022-12-24T19:27:28;57.35;;;14.23;;
35223;SDS011;21367;51.930;8.112;2022-12-24T19:32:34;64.60;;;14.18;;
35223;SDS011;21367;51.930;8.112;2022-12-24T19:37:39;58.08;;;12.82;;
35223;SDS011;21367;51.930;8.112;2022-12-24T19:42:43;52.50;;;11.93;;
35223;SDS011;21367;51.930;8.112;2022-12-24T19:47:52;41.53;;;10.63;;
35223;SDS011;21367;51.930;8.112;2022-12-24T19:58:01;41.00;;;12.32;;
35223;SDS011;21367;51.930;8.112;2022-12-24T20:03:07;57.22;;;15.48;;
35223;SDS011;21367;51.930;8.112;2022-12-24T20:08:11;48.58;;;14.38;;
35223;SDS011;21367;51.930;8.112;2022-12-24T20:13:15;58.10;;;15.07;;
35223;SDS011;21367;51.930;8.112;2022-12-24T20:18:22;56.22;;;16.67;;
35223;SDS011;21367;51.930;8.112;2022-12-24T20:23:26;53.85;;;18.63;;
35223;SDS011;21367;51.930;8.112;2022-12-24T20:28:30;81.03;;;21.70;;
35223;SDS011;21367;51.930;8.112;2022-12-24T20:33:38;75.55;;;20.95;;
35223;SDS011;21367;51.930;8.112;2022-12-24T20:38:42;66.60;;;19.92;;
35223;SDS011;21367;51.930;8.112;2022-12-24T20:43:47;67.18;;;21.02;;
35223;SDS011;21367;51.930;8.112;2022-12-24T20:48:54;72.63;;;20.50;;
35223;SDS011;21367;51.930;8.112;2022-12-24T20:53:58;69.60;;;22.45;;
35223;SDS011;21367;51.930;8.112;2022-12-24T20:59:02;66.03;;;22.05;;
35223;SDS011;21367;51.930;8.112;2022-12-24T21:04:10;70.07;;;21.13;;
35223;SDS011;21367;51.930;8.112;2022-12-24T21:09:14;64.88;;;19.95;;
35223;SDS011;21367;51.930;8.112;2022-12-24T21:14:19;58.35;;;18.77;;
35223;SDS011;21367;51.930;8.112;2022-12-24T21:19:27;59.85;;;18.55;;
35223;SDS011;21367;51.930;8.112;2022-12-24T21:24:30;57.22;;;16.20;;
35223;SDS011;21367;51.930;8.112;2022-12-24T21:29:34;54.85;;;16.45;;
35223;SDS011;21367;51.930;8.112;2022-12-24T21:34:40;48.53;;;14.75;;
35223;SDS011;21367;51.930;8.112;2022-12-24T21:39:44;72.78;;;20.15;;
35223;SDS011;21367;51.930;8.112;2022-12-24T21:44:48;78.32;;;20.73;;
35223;SDS011;21367;51.930;8.112;2022-12-24T21:49:55;76.53;;;23.38;;
35223;SDS011;21367;51.930;8.112;2022-12-24T21:55:11;77.78;;;21.20;;
35223;SDS011;21367;51.930;8.112;2022-12-24T22:00:15;57.15;;;18.83;;
35223;SDS011;21367;51.930;8.112;2022-12-24T22:05:30;49.88;;;18.30;;
35223;SDS011;21367;51.930;8.112;2022-12-24T22:10:35;61.03;;;20.20;;
35223;SDS011;21367;51.930;8.112;2022-12-24T22:15:52;66.53;;;19.63;;
35223;SDS011;21367;51.930;8.112;2022-12-24T22:21:00;83.82;;;19.35;;
35223;SDS011;21367;51.930;8.112;2022-12-24T22:26:08;92.22;;;23.30;;
35223;SDS011;21367;51.930;8.112;2022-12-24T22:31:16;64.53;;;19.90;;
35223;SDS011;21367;51.930;8.112;2022-12-24T22:36:23;61.65;;;17.75;;
35223;SDS011;21367;51.930;8.112;2022-12-24T22:41:27;55.65;;;15.30;;
35223;SDS011;21367;51.930;8.112;2022-12-24T22:46:31;56.60;;;15.93;;
35223;SDS011;21367;51.930;8.112;2022-12-24T22:51:38;57.75;;;15.68;;
35223;SDS011;21367;51.930;8.112;2022-12-24T23:01:45;73.32;;;17.90;;
35223;SDS011;21367;51.930;8.112;2022-12-24T23:06:54;63.90;;;16.92;;
35223;SDS011;21367;51.930;8.112;2022-12-24T23:11:58;71.15;;;15.77;;
35223;SDS011;21367;51.930;8.112;2022-12-24T23:17:02;46.03;;;13.95;;
35223;SDS011;21367;51.930;8.112;2022-12-24T23:22:08;47.38;;;13.68;;
35223;SDS011;21367;51.930;8.112;2022-12-24T23:27:10;52.38;;;13.88;;
35223;SDS011;21367;51.930;8.112;2022-12-24T23:32:14;51.88;;;13.07;;
35223;SDS011;21367;51.930;8.112;2022-12-24T23:37:21;50.47;;;13.20;;
35223;SDS011;21367;51.930;8.112;2022-12-24T23:42:25;49.83;;;13.70;;
35223;SDS011;21367;51.930;8.112;2022-12-24T23:47:29;55.53;;;13.10;;
35223;SDS011;21367;51.930;8.112;2022-12-24T23:52:35;47.20;;;13.00;;
35223;SDS011;21367;51.930;8.112;2022-12-24T23:57:39;43.35;;;10.73;;
